If you wish to contribute or participate in the discussions about articles you are invited to join SKYbrary as a registered user

 Actions

Vandenberg Air Force Base

From SKYbrary Wiki

KVBG
Airport
ICAO: KVBG – IATA: VBG
Summary
Name Vandenberg Air Force Base
Region North America
Territory United States US.gif
Location , California
Serving Lompoc
Elevation 112.471 m
369 ft
369 ft112.471 m
Type large airport
Coordinates 34° 44' 14.40" N, 120° 35' 3.50" W
Runways
Designator Length Width Surface ROPS
12/30 4572 m15,000 ft
61 m200.131 ft
CON yes/yes


METAR
Observation KVBG 262135Z AUTO 32012G17KT 8SM BKN006 BKN037 13/12 A2996 RMK AO2 RAE05 CIG 004V006 SLP149
Station Lompoc, Vandenberg Air Force Base
Date/Time 26 May 2019 21:35:00
Wind direction 320°
Wind speed 12 kts
Lowest cloud amount broken clouds
Temperature 13°C
Dew point 12°C
Humidity 93%
QNH hPa
Weather condition n/a

Maps

Terrain

Loading map...

Airport Layout

Loading map...


Accidents & Serious Incidents at or in vicinity of KVBG

None on SKYbrary